Time;durP1;ratioP1;P1;durP2;ratioP2;P2;SDS_P1;SDS_P2;PMS_P1;PMS_P2;Temp;Humidity;BMP_temperature;BMP_pressure;BME280_temperature;BME280_humidity;BME280_pressure;Samples;Min_cycle;Max_cycle;Signal;HPM_P1;HPM_P2
2022/01/25 00:09:21;;;;;;;28.10;19.45;;;;;;;-2.86;51.26;102244.38;4986235;28;20122;-72
2022/01/25 00:26:19;;;;;;;26.60;15.23;;;;;;;-2.56;49.48;102256.31;4982932;28;20108;-74
2022/01/25 00:29:10;;;;;;;31.75;17.17;;;;;;;-2.99;50.90;102239.03;4979421;28;20051;-72
2022/01/25 00:31:32;;;;;;;28.55;17.75;;;;;;;-2.79;50.50;102251.88;4987553;28;20047;-72
2022/01/25 00:33:58;;;;;;;33.80;17.00;;;;;;;-2.90;50.04;102255.19;4982347;28;20042;-73
2022/01/25 00:36:25;;;;;;;28.83;17.60;;;;;;;-3.04;49.83;102228.38;4977209;28;20045;-72
2022/01/25 00:38:52;;;;;;;22.58;16.98;;;;;;;-2.68;49.60;102244.16;4986607;28;20459;-71
2022/01/25 00:41:19;;;;;;;20.67;14.45;;;;;;;-2.58;49.36;102249.25;4980120;28;20133;-73
2022/01/25 00:43:46;;;;;;;25.17;15.73;;;;;;;-2.93;48.83;102239.50;4984392;28;20041;-71
2022/01/25 00:46:12;;;;;;;29.00;15.52;;;;;;;-2.67;48.44;102223.72;4965837;28;20134;-71
2022/01/25 00:56:51;;;;;;;23.33;14.57;;;;;;;-2.41;47.59;102223.28;4963141;28;20193;-71
2022/01/25 00:59:21;;;;;;;24.58;12.57;;;;;;;-2.64;48.21;102230.78;4967248;28;20051;-72
2022/01/25 01:01:49;;;;;;;22.80;13.10;;;;;;;-2.84;48.99;102204.31;4972383;28;20048;-71
2022/01/25 01:04:18;;;;;;;20.00;12.48;;;;;;;-2.48;47.54;102227.78;4974362;28;20038;-72
2022/01/25 01:06:45;;;;;;;21.50;13.80;;;;;;;-2.63;47.71;102206.88;4973088;28;20026;-71
2022/01/25 01:09:12;;;;;;;23.80;14.57;;;;;;;-2.52;48.21;102218.03;4988141;28;20041;-72
2022/01/25 01:11:49;;;;;;;23.30;14.55;;;;;;;-2.78;47.31;102197.13;4981767;28;20049;-73
2022/01/25 01:30:45;;;;;;;21.60;12.88;;;;;;;-2.66;47.60;102206.63;4984772;28;20517;-72
2022/01/25 01:36:27;;;;;;;19.95;12.23;;;;;;;-2.56;46.99;102186.03;4951894;28;20074;-71
2022/01/25 01:44:09;;;;;;;19.70;14.65;;;;;;;-2.55;47.10;102183.59;4959313;28;20137;-71
2022/01/25 01:49:05;;;;;;;19.48;13.15;;;;;;;-2.42;47.54;102189.72;4988067;28;20037;-72
2022/01/25 01:51:34;;;;;;;23.80;15.55;;;;;;;-2.38;47.51;102179.81;4973334;28;20035;-71
2022/01/25 01:54:06;;;;;;;20.38;14.15;;;;;;;-2.48;47.18;102158.38;4979877;28;20050;-71
2022/01/25 01:56:32;;;;;;;18.33;12.32;;;;;;;-2.53;46.76;102177.69;4978929;28;20479;-73
2022/01/25 01:59:01;;;;;;;20.52;13.13;;;;;;;-2.62;47.18;102159.88;4983374;28;20050;-73
2022/01/25 02:01:28;;;;;;;21.20;15.65;;;;;;;-2.52;46.88;102175.25;4981515;28;20108;-70
2022/01/25 02:03:55;;;;;;;34.00;14.98;;;;;;;-2.48;47.73;102158.38;4985209;28;20116;-73
2022/01/25 02:06:40;;;;;;;24.30;16.15;;;;;;;-2.46;46.84;102175.75;4987496;28;20549;-72
2022/01/25 02:09:07;;;;;;;22.52;13.77;;;;;;;-2.67;48.44;102149.22;4988803;28;20082;-71
2022/01/25 02:11:33;;;;;;;21.15;12.88;;;;;;;-2.58;47.58;102149.94;4988529;28;20047;-73
2022/01/25 02:14:12;;;;;;;24.15;15.40;;;;;;;-2.62;47.64;102140.22;4990082;28;20030;-72
2022/01/25 02:24:36;;;;;;;21.60;13.27;;;;;;;-2.91;47.84;102144.63;4977817;28;20045;-72
2022/01/25 02:27:02;;;;;;;26.45;16.40;;;;;;;-2.68;47.25;102137.13;4982600;28;20046;-72
2022/01/25 02:29:28;;;;;;;22.73;14.40;;;;;;;-2.66;47.92;102147.53;4987460;28;20137;-72
2022/01/25 02:31:54;;;;;;;24.98;16.23;;;;;;;-2.84;47.35;102158.09;4984310;28;20090;-72
2022/01/25 02:34:20;;;;;;;19.60;13.48;;;;;;;-2.73;48.18;102135.88;4988133;28;20042;-71
2022/01/25 02:36:54;;;;;;;23.05;15.98;;;;;;;-2.77;48.72;102150.13;4989051;28;20042;-72
2022/01/25 02:39:19;;;;;;;26.55;16.45;;;;;;;-2.83;48.34;102152.19;4988619;28;20045;-75
2022/01/25 02:41:45;;;;;;;27.42;17.05;;;;;;;-2.76;49.12;102123.66;4982969;28;20479;-72
2022/01/25 02:44:12;;;;;;;30.98;17.52;;;;;;;-2.64;49.04;102143.44;4978091;28;20472;-72
2022/01/25 02:50:38;;;;;;;31.60;16.27;;;;;;;-2.60;48.80;102141.22;4982224;28;20041;-71
2022/01/25 02:53:03;;;;;;;25.67;14.95;;;;;;;-2.53;48.75;102141.72;4977805;28;20051;-71
2022/01/25 02:55:30;;;;;;;24.63;15.95;;;;;;;-2.77;49.01;102139.84;4980590;28;20094;-71
2022/01/25 02:57:56;;;;;;;34.92;17.70;;;;;;;-2.70;48.96;102137.78;4972852;28;20038;-73
2022/01/25 03:00:21;;;;;;;23.88;17.60;;;;;;;-2.89;48.00;102145.66;4971147;28;20031;-72
2022/01/25 03:02:47;;;;;;;26.17;15.73;;;;;;;-2.68;47.57;102120.81;4993343;28;20038;-71
2022/01/25 03:05:12;;;;;;;24.75;17.05;;;;;;;-2.57;47.36;102133.75;4989044;28;20034;-71
2022/01/25 03:07:39;;;;;;;24.58;17.85;;;;;;;-2.49;47.51;102125.75;4987932;28;20047;-71
2022/01/25 03:10:05;;;;;;;26.98;18.20;;;;;;;-2.61;47.69;102116.28;4991221;28;20023;-72
2022/01/25 03:12:41;;;;;;;29.48;17.80;;;;;;;-2.66;47.78;102121.84;4988076;28;20470;-75
2022/01/25 03:17:52;;;;;;;25.42;17.63;;;;;;;-2.71;48.19;102106.06;4988008;28;20042;-73
2022/01/25 03:20:21;;;;;;;25.48;17.65;;;;;;;-2.60;47.91;102112.03;4987303;28;20053;-72
2022/01/25 03:25:19;;;;;;;27.55;17.17;;;;;;;-2.60;47.88;102097.56;4991253;28;20050;-70
2022/01/25 03:27:46;;;;;;;28.25;18.33;;;;;;;-2.83;49.43;102092.25;4993893;28;20113;-70
2022/01/25 03:30:12;;;;;;;29.92;16.85;;;;;;;-2.67;49.75;102085.00;4993563;28;20073;-70
2022/01/25 03:32:37;;;;;;;26.45;17.48;;;;;;;-2.68;49.50;102085.75;4989928;28;20042;-71
2022/01/25 03:35:04;;;;;;;26.05;18.33;;;;;;;-2.70;49.59;102082.16;4987918;28;20046;-71
2022/01/25 03:37:30;;;;;;;33.67;19.88;;;;;;;-2.70;48.98;102071.88;4991946;28;20096;-71
2022/01/25 03:39:55;;;;;;;32.00;18.08;;;;;;;-2.61;49.42;102069.16;4985755;28;20356;-71
2022/01/25 03:42:21;;;;;;;28.42;17.40;;;;;;;-2.67;49.33;102071.22;4978891;28;20116;-71
2022/01/25 03:44:46;;;;;;;25.70;17.13;;;;;;;-2.91;49.87;102083.88;4973521;28;20101;-71
2022/01/25 03:47:16;;;;;;;25.65;17.17;;;;;;;-2.95;49.46;102083.50;4991170;28;20042;-72
2022/01/25 03:49:52;;;;;;;32.60;17.38;;;;;;;-2.86;49.22;102087.72;4986284;28;20042;-74
2022/01/25 03:52:27;;;;;;;26.65;18.23;;;;;;;-3.01;49.23;102091.63;4985154;28;20093;-76
2022/01/25 03:55:03;;;;;;;39.65;19.42;;;;;;;-2.87;49.07;102078.22;4982412;28;20034;-72
2022/01/25 03:57:28;;;;;;;23.02;16.25;;;;;;;-3.01;48.86;102076.22;4975968;28;20027;-72
2022/01/25 03:59:57;;;;;;;26.35;20.10;;;;;;;-2.95;49.13;102060.41;4992925;28;20359;-71
2022/01/25 04:02:24;;;;;;;32.53;18.08;;;;;;;-2.66;49.41;102076.50;4978379;28;20039;-72
2022/01/25 04:04:50;;;;;;;33.97;18.35;;;;;;;-3.09;48.92;102079.81;5006295;28;20035;-72
2022/01/25 04:07:25;;;;;;;28.17;18.50;;;;;;;-3.09;49.17;102056.72;4975140;28;20062;-72
2022/01/25 04:09:51;;;;;;;29.67;19.10;;;;;;;-2.64;49.23;102082.66;4987474;28;20026;-70
2022/01/25 04:12:17;;;;;;;31.05;17.95;;;;;;;-2.67;49.44;102081.50;4987586;28;20049;-70
2022/01/25 04:14:43;;;;;;;32.05;16.85;;;;;;;-2.47;49.66;102073.72;4991641;28;20478;-71
2022/01/25 04:17:26;;;;;;;30.40;17.48;;;;;;;-2.49;49.58;102064.09;4986175;28;20070;-71
2022/01/25 04:20:13;;;;;;;;;;;;;;;-2.65;50.27;102069.69;4990536;28;20039;-70
2022/01/25 04:25:22;;;;;;;29.25;18.13;;;;;;;-3.12;49.30;102072.75;4990512;28;20500;-71
2022/01/25 04:27:48;;;;;;;29.40;18.15;;;;;;;-3.70;50.20;102071.44;4987610;28;20026;-73
2022/01/25 04:30:13;;;;;;;33.97;19.77;;;;;;;-3.44;49.56;102059.88;4982335;28;20047;-71
2022/01/25 04:32:47;;;;;;;31.33;19.60;;;;;;;-3.30;49.27;102058.41;4990317;28;20061;-71
2022/01/25 04:54:08;;;;;;;27.92;17.13;;;;;;;-3.27;51.06;102062.16;4975294;28;20487;-72
2022/01/25 04:59:28;;;;;;;33.67;17.83;;;;;;;-2.92;50.93;102066.69;4982986;28;20459;-71
2022/01/25 05:02:00;;;;;;;27.92;18.80;;;;;;;-3.06;50.01;102064.69;4988129;28;20040;-71
2022/01/25 05:04:30;;;;;;;25.55;16.75;;;;;;;-2.87;51.65;102064.50;4976463;28;20089;-71
2022/01/25 05:07:04;;;;;;;33.00;18.95;;;;;;;-3.44;50.69;102039.34;4985235;28;20029;-70
2022/01/25 05:09:44;;;;;;;31.42;18.05;;;;;;;-3.19;51.16;102057.63;4984048;28;20052;-70
2022/01/25 05:12:11;;;;;;;31.60;18.20;;;;;;;-3.39;52.57;102035.50;4974072;28;20051;-71
2022/01/25 05:14:47;;;;;;;45.28;19.90;;;;;;;-3.42;52.72;102031.00;4966885;28;20049;-71
2022/01/25 05:17:18;;;;;;;37.80;18.42;;;;;;;-3.06;52.64;102045.03;4970474;28;20492;-71
2022/01/25 05:24:40;;;;;;;27.50;18.52;;;;;;;-3.25;52.85;102037.50;4964248;28;20039;-71
2022/01/25 05:27:12;;;;;;;39.38;21.75;;;;;;;-3.25;52.92;102046.88;4959433;28;20039;-70
2022/01/25 05:29:38;;;;;;;25.92;17.35;;;;;;;-3.09;52.81;102054.16;4979971;28;20397;-71
2022/01/25 05:32:05;;;;;;;29.52;19.00;;;;;;;-3.32;55.27;102054.84;4966397;28;20057;-71
2022/01/25 05:34:31;;;;;;;40.78;21.02;;;;;;;-3.52;56.63;102051.53;4969503;28;20046;-71
2022/01/25 05:36:57;;;;;;;36.42;21.92;;;;;;;-3.58;56.94;102025.38;4969139;28;20062;-72
2022/01/25 05:39:28;;;;;;;36.08;21.85;;;;;;;-3.55;57.22;102041.00;4970287;28;20114;-71
2022/01/25 05:41:57;;;;;;;35.70;21.92;;;;;;;-3.74;58.09;102043.72;4969713;28;20100;-71
2022/01/25 05:44:38;;;;;;;35.08;21.95;;;;;;;-3.62;57.50;102041.28;4964467;28;20375;-71
2022/01/25 05:47:06;;;;;;;36.28;21.20;;;;;;;-3.85;58.63;102035.13;4969672;28;20047;-77
2022/01/25 05:49:49;;;;;;;43.03;20.42;;;;;;;-3.89;59.52;102016.78;4970900;28;20043;-72
2022/01/25 05:52:15;;;;;;;29.25;21.80;;;;;;;-3.85;59.71;102034.22;4959478;28;20035;-72
2022/01/25 05:54:40;;;;;;;34.83;21.08;;;;;;;-4.01;59.95;102033.69;4966257;28;20118;-72
2022/01/25 05:57:07;;;;;;;27.25;18.83;;;;;;;-4.13;61.20;102042.13;4970506;28;20093;-72
2022/01/25 05:59:33;;;;;;;52.33;21.00;;;;;;;-4.37;61.79;102030.69;4968544;28;20039;-72
2022/01/25 06:01:59;;;;;;;36.53;18.50;;;;;;;-4.18;61.64;102022.91;4969680;28;20106;-78
2022/01/25 06:04:25;;;;;;;35.70;22.13;;;;;;;-4.22;61.63;102002.03;4969508;28;20035;-72
2022/01/25 06:06:51;;;;;;;30.75;19.65;;;;;;;-4.08;61.08;102019.47;4959395;28;20026;-72
2022/01/25 06:09:17;;;;;;;32.75;20.55;;;;;;;-3.91;61.30;102033.69;4969097;28;20047;-72
2022/01/25 06:13:42;;;;;;;43.80;20.77;;;;;;;-3.96;60.79;102047.81;5031783;28;20612;-71
2022/01/25 06:16:08;;;;;;;41.20;22.20;;;;;;;-3.79;60.28;102033.81;5003257;28;20121;-72
2022/01/25 06:18:33;;;;;;;28.95;17.83;;;;;;;-4.22;60.72;102030.22;5006151;28;20604;-71
2022/01/25 06:20:59;;;;;;;37.92;23.67;;;;;;;-4.16;59.96;102007.69;4994631;28;20066;-71
2022/01/25 06:23:24;;;;;;;35.13;20.48;;;;;;;-3.92;59.99;102007.16;5034373;28;20128;-73
2022/01/25 06:25:50;;;;;;;34.60;20.25;;;;;;;-3.69;58.88;102023.59;5002311;28;20046;-72
2022/01/25 06:28:16;;;;;;;36.15;21.10;;;;;;;-3.75;59.64;102007.69;4995230;28;20038;-73
2022/01/25 06:30:41;;;;;;;29.75;19.90;;;;;;;-3.88;60.29;101993.84;5000114;28;20038;-70
2022/01/25 06:33:08;;;;;;;35.10;20.25;;;;;;;-3.93;59.77;102005.38;5002823;28;20085;-70
2022/01/25 06:35:34;;;;;;;39.33;23.35;;;;;;;-3.65;59.08;102008.56;5000786;28;20072;-71
2022/01/25 06:38:00;;;;;;;27.50;19.33;;;;;;;-4.09;59.75;102023.69;5002563;28;20096;-71
2022/01/25 06:40:27;;;;;;;36.97;20.65;;;;;;;-3.91;59.66;102021.81;5005016;28;20054;-72
2022/01/25 06:42:52;;;;;;;37.58;21.38;;;;;;;-3.85;59.83;102006.91;5010639;28;20026;-73
2022/01/25 06:45:20;;;;;;;32.60;23.38;;;;;;;-4.10;59.52;101982.53;5020148;28;20030;-71
2022/01/25 06:47:47;;;;;;;37.08;21.08;;;;;;;-3.92;59.06;102008.84;5019741;28;20137;-72
2022/01/25 06:50:14;;;;;;;39.20;19.35;;;;;;;-4.08;59.30;101996.41;5005872;28;20037;-71
2022/01/25 06:52:41;;;;;;;35.00;21.63;;;;;;;-4.34;60.23;101976.25;4989161;28;20053;-71
2022/01/25 06:55:15;;;;;;;41.08;21.02;;;;;;;-3.97;59.95;101976.81;5011679;28;20030;-71
2022/01/25 06:57:41;;;;;;;33.22;21.88;;;;;;;-3.99;59.41;101981.78;5008665;28;20026;-73
2022/01/25 07:00:14;;;;;;;37.58;20.63;;;;;;;-3.77;59.30;101998.97;5015292;28;20177;-71
2022/01/25 07:02:39;;;;;;;41.03;21.15;;;;;;;-4.22;59.73;101990.09;4998642;28;20053;-72
2022/01/25 07:05:05;;;;;;;36.50;21.23;;;;;;;-3.88;59.85;102016.03;4990881;28;20367;-72
2022/01/25 07:07:31;;;;;;;42.83;23.85;;;;;;;-4.11;59.45;102014.09;5002902;28;20494;-72
2022/01/25 07:09:57;;;;;;;42.17;23.38;;;;;;;-3.84;59.04;102001.03;5005663;28;20474;-72
2022/01/25 07:12:24;;;;;;;41.13;24.42;;;;;;;-3.63;59.33;102008.69;4999504;28;20151;-72
2022/01/25 07:14:50;;;;;;;41.92;24.65;;;;;;;-3.78;59.23;102004.88;5003215;28;20050;-73
2022/01/25 07:19:38;;;;;;;35.35;19.88;;;;;;;-3.85;58.76;101996.66;5115201;27;20754;-71
2022/01/25 07:22:04;;;;;;;41.05;26.15;;;;;;;-3.93;59.67;101972.06;5085384;28;20040;-72
2022/01/25 07:24:29;;;;;;;34.58;24.15;;;;;;;-3.25;58.19;101998.13;5087269;28;20024;-71
2022/01/25 07:26:55;;;;;;;63.38;24.42;;;;;;;-3.43;57.89;101984.69;5100790;28;20123;-73
2022/01/25 07:29:21;;;;;;;39.83;24.52;;;;;;;-3.97;59.00;101963.97;5087031;28;20488;-73
2022/01/25 07:31:47;;;;;;;39.40;22.75;;;;;;;-3.37;57.61;101989.41;5090909;28;20043;-71
2022/01/25 07:34:12;;;;;;;37.55;24.10;;;;;;;-3.44;57.93;101977.78;5091761;28;20036;-72
2022/01/25 07:36:39;;;;;;;34.53;22.10;;;;;;;-3.42;57.54;101954.03;5095424;28;20032;-70
2022/01/25 07:39:05;;;;;;;43.70;25.83;;;;;;;-3.47;57.75;101962.09;5097395;28;20044;-72
2022/01/25 07:41:31;;;;;;;31.63;23.05;;;;;;;-3.38;57.86;101982.50;5090638;28;20083;-70
2022/01/25 07:43:59;;;;;;;42.45;22.58;;;;;;;-3.48;57.75;101965.47;5097219;28;20048;-72
2022/01/25 07:46:24;;;;;;;47.35;23.33;;;;;;;-3.35;57.45;101981.06;5086164;28;20041;-72
2022/01/25 07:48:50;;;;;;;37.72;25.20;;;;;;;-3.89;59.03;101984.34;5085770;28;20035;-72
2022/01/25 07:53:44;;;;;;;40.42;22.75;;;;;;;-3.22;56.46;101981.28;5031846;27;20614;-72
2022/01/25 07:56:10;;;;;;;34.92;20.85;;;;;;;-2.84;55.75;101980.88;5005091;28;20130;-72
2022/01/25 07:58:37;;;;;;;59.10;25.23;;;;;;;-2.57;54.76;101984.72;5005269;28;20042;-72
2022/01/25 08:01:03;;;;;;;49.20;24.35;;;;;;;-2.55;54.39;101984.84;5004964;28;20109;-71
2022/01/25 08:03:29;;;;;;;31.48;21.80;;;;;;;-2.66;53.49;101965.13;5006014;28;20030;-73
2022/01/25 08:05:54;;;;;;;37.70;23.10;;;;;;;-2.68;53.10;101976.97;5006182;28;20371;-72
2022/01/25 08:08:20;;;;;;;50.78;19.85;;;;;;;-2.39;52.75;101959.56;5005603;28;21053;-71
2022/01/25 08:10:45;;;;;;;42.08;23.20;;;;;;;-2.45;52.46;101979.66;5006851;28;20513;-71
2022/01/25 08:13:11;;;;;;;33.50;21.83;;;;;;;-3.24;53.94;101969.09;5005301;28;20054;-71
2022/01/25 08:15:36;;;;;;;43.78;22.27;;;;;;;-2.24;52.84;101985.53;5005278;28;20030;-74
2022/01/25 08:18:02;;;;;;;40.22;19.88;;;;;;;-3.54;53.36;101964.94;5006027;28;20046;-71
2022/01/25 08:20:27;;;;;;;32.10;18.90;;;;;;;-3.37;54.30;101980.06;5037008;28;20065;-72
2022/01/25 08:22:53;;;;;;;36.05;21.58;;;;;;;-3.44;54.92;101993.16;5003945;28;20093;-72
2022/01/25 08:25:19;;;;;;;34.90;22.23;;;;;;;-2.91;53.91;101957.16;5005144;28;20047;-72
2022/01/25 08:27:45;;;;;;;36.83;21.55;;;;;;;-2.80;52.93;101975.22;5005940;28;20029;-73
2022/01/25 08:30:31;;;;;;;37.85;20.27;;;;;;;-2.33;52.00;101979.69;4998557;28;20038;-72
2022/01/25 08:33:16;;;;;;;27.10;17.90;;;;;;;-1.99;49.69;101982.25;4990160;28;20045;-71
2022/01/25 08:35:41;;;;;;;26.08;16.23;;;;;;;-1.81;49.01;101978.50;4997737;28;20148;-72
2022/01/25 08:38:07;;;;;;;28.45;17.55;;;;;;;-2.16;48.61;101992.16;4999711;28;20491;-72
2022/01/25 08:40:34;;;;;;;26.40;14.00;;;;;;;-2.25;47.22;101982.84;5003642;28;20066;-74
2022/01/25 08:43:00;;;;;;;28.85;16.73;;;;;;;-2.48;48.27;101964.00;5003670;28;20038;-73
2022/01/25 08:45:26;;;;;;;22.73;16.05;;;;;;;-2.02;47.88;101988.06;5002586;28;20034;-71
2022/01/25 08:47:52;;;;;;;27.55;16.90;;;;;;;-1.82;47.84;101981.88;5003151;28;20034;-71
2022/01/25 08:50:17;;;;;;;29.30;17.08;;;;;;;-1.87;47.37;101961.72;5003631;28;20042;-73
2022/01/25 08:52:43;;;;;;;31.30;16.90;;;;;;;-1.30;46.45;101975.44;5004517;28;20048;-71
2022/01/25 08:55:08;;;;;;;24.92;15.52;;;;;;;-1.92;46.24;101985.44;4996278;28;20035;-71
2022/01/25 08:57:34;;;;;;;62.30;17.67;;;;;;;-2.00;46.98;101960.78;5004088;28;20032;-71
2022/01/25 09:00:00;;;;;;;34.50;20.20;;;;;;;-1.34;47.11;101990.53;5004937;28;20383;-71
2022/01/25 09:02:25;;;;;;;33.25;18.15;;;;;;;-1.87;46.39;101952.34;5036340;28;20446;-75
2022/01/25 09:04:51;;;;;;;27.23;17.88;;;;;;;-2.67;48.59;101979.66;4992817;28;20093;-71
2022/01/25 09:07:16;;;;;;;27.83;17.35;;;;;;;-2.03;47.78;101965.72;4990805;28;20093;-71
2022/01/25 09:09:42;;;;;;;25.95;17.55;;;;;;;-1.41;46.21;101965.13;4992213;28;20030;-71
2022/01/25 09:12:32;;;;;;;32.95;17.75;;;;;;;-1.70;45.93;101969.91;4990491;28;20038;-71
2022/01/25 09:14:58;;;;;;;34.53;17.45;;;;;;;-1.63;46.70;101966.13;4986749;28;20338;-71
2022/01/25 09:17:23;;;;;;;31.92;20.45;;;;;;;-1.37;46.50;101943.97;4990226;28;20100;-70
2022/01/25 09:19:48;;;;;;;35.30;20.02;;;;;;;-0.90;45.82;101931.91;4980011;28;20058;-72
2022/01/25 09:22:14;;;;;;;27.13;20.05;;;;;;;-0.78;45.44;101949.94;4981495;28;20367;-72
2022/01/25 09:24:40;;;;;;;34.80;22.52;;;;;;;-0.88;45.89;101957.81;4992340;28;20425;-71
2022/01/25 09:27:08;;;;;;;31.48;23.23;;;;;;;-0.97;46.75;101939.13;4991739;28;20060;-71
2022/01/25 09:29:33;;;;;;;41.13;23.20;;;;;;;-1.13;47.97;101932.84;4990209;28;20051;-71
2022/01/25 09:31:58;;;;;;;41.25;23.05;;;;;;;-1.27;48.49;101944.75;4978303;28;20046;-74
2022/01/25 09:34:25;;;;;;;37.15;22.45;;;;;;;-0.51;47.05;101950.09;4988809;28;20129;-71
2022/01/25 09:37:04;;;;;;;37.22;21.70;;;;;;;-0.65;47.25;101941.41;4990882;28;20022;-71
2022/01/25 09:39:38;;;;;;;48.30;23.20;;;;;;;-0.83;47.09;101940.97;4990803;28;20060;-71
2022/01/25 09:42:08;;;;;;;28.77;19.77;;;;;;;-1.10;47.30;101938.25;4990883;28;20101;-71
2022/01/25 09:44:35;;;;;;;29.92;22.95;;;;;;;-1.27;48.98;101911.25;4991165;28;20046;-71
2022/01/25 09:47:01;;;;;;;40.47;23.00;;;;;;;-0.55;47.12;101927.47;4991024;28;20502;-72
2022/01/25 09:49:27;;;;;;;32.30;22.00;;;;;;;-0.37;46.70;101921.00;4987353;28;20038;-71
2022/01/25 09:51:55;;;;;;;31.58;20.45;;;;;;;-0.58;44.83;101923.00;4988980;28;20050;-72
2022/01/25 09:54:20;;;;;;;28.17;20.27;;;;;;;-0.15;44.15;101902.69;4992067;28;20034;-72
2022/01/25 09:56:46;;;;;;;33.67;22.08;;;;;;;-1.56;46.45;101905.72;4979617;28;20402;-72
2022/01/25 09:59:11;;;;;;;51.70;19.73;;;;;;;-0.55;44.97;101883.63;4985022;28;20138;-71
2022/01/25 10:01:37;;;;;;;36.17;22.77;;;;;;;-1.18;45.60;101908.47;4987621;28;20521;-73
2022/01/25 10:04:05;;;;;;;32.88;22.38;;;;;;;-0.99;45.97;101895.19;4990211;28;20042;-73
2022/01/25 10:06:35;;;;;;;32.72;20.33;;;;;;;-0.83;44.20;101881.72;4988936;28;20018;-72
2022/01/25 10:09:01;;;;;;;37.60;21.60;;;;;;;-0.25;45.66;101905.47;4990817;28;20441;-72
2022/01/25 10:11:26;;;;;;;37.72;21.00;;;;;;;0.18;43.43;101910.91;4990326;28;20091;-73
2022/01/25 10:13:58;;;;;;;32.40;19.75;;;;;;;-0.88;43.75;101901.13;4989073;28;20089;-72
2022/01/25 10:16:35;;;;;;;32.28;18.60;;;;;;;-0.90;44.93;101887.22;4989578;28;20112;-71
2022/01/25 10:19:05;;;;;;;28.35;20.30;;;;;;;-0.37;44.66;101876.25;4989409;28;20065;-72
2022/01/25 10:21:31;;;;;;;29.73;19.30;;;;;;;-0.03;44.65;101888.03;4991021;28;20034;-72
2022/01/25 10:24:03;;;;;;;32.53;22.77;;;;;;;-0.69;46.69;101883.56;4990224;28;20218;-71
2022/01/25 10:26:49;;;;;;;39.20;22.83;;;;;;;-0.56;46.48;101877.59;4987817;28;20050;-72
2022/01/25 10:29:21;;;;;;;30.45;21.60;;;;;;;0.04;45.63;101883.28;4989015;28;20120;-73
2022/01/25 10:31:58;;;;;;;42.65;25.60;;;;;;;-0.98;47.57;101853.22;4990460;28;20054;-72
2022/01/25 10:34:30;;;;;;;35.72;20.50;;;;;;;-0.05;46.32;101871.56;4990191;28;20482;-72
2022/01/25 10:36:57;;;;;;;34.70;23.58;;;;;;;0.50;44.01;101860.47;4988245;28;20513;-73
2022/01/25 10:39:28;;;;;;;33.67;22.33;;;;;;;-0.94;46.35;101862.03;4988672;28;20474;-77
2022/01/25 10:42:21;;;;;;;27.95;19.15;;;;;;;-0.09;43.73;101864.41;4974120;28;20069;-72
2022/01/25 10:45:10;;;;;;;33.63;23.77;;;;;;;0.24;44.04;101859.69;4983617;28;20062;-71
2022/01/25 10:47:46;;;;;;;35.95;20.52;;;;;;;-0.45;43.65;101837.03;4981039;28;20042;-71
2022/01/25 10:50:31;;;;;;;27.90;18.85;;;;;;;1.15;41.39;101852.50;4990346;28;20049;-72
2022/01/25 10:53:11;;;;;;;30.38;19.77;;;;;;;1.38;40.45;101828.00;4980854;28;20046;-72
2022/01/25 10:55:41;;;;;;;27.67;20.63;;;;;;;2.15;38.71;101840.25;4986073;28;20042;-72
2022/01/25 10:58:07;;;;;;;28.48;17.58;;;;;;;2.00;38.02;101830.81;4975923;28;20037;-75
2022/01/25 11:00:37;;;;;;;32.85;18.45;;;;;;;0.60;40.48;101812.06;4994703;28;20029;-72
2022/01/25 11:03:04;;;;;;;28.02;17.73;;;;;;;2.48;37.83;101802.41;5007353;28;20025;-70
2022/01/25 11:05:35;;;;;;;24.73;17.45;;;;;;;3.01;36.66;101816.50;4989703;28;20038;-72
2022/01/25 11:08:16;;;;;;;30.00;19.15;;;;;;;1.85;37.14;101812.72;4986253;28;20050;-72
2022/01/25 11:10:48;;;;;;;30.48;17.48;;;;;;;1.71;38.35;101805.84;4983352;28;20062;-71
2022/01/25 11:13:33;;;;;;;27.75;19.98;;;;;;;1.93;39.08;101809.66;4971429;28;20042;-76
2022/01/25 11:16:04;;;;;;;35.30;18.20;;;;;;;2.06;37.31;101802.69;4990276;28;20019;-73
2022/01/25 11:18:30;;;;;;;44.55;19.77;;;;;;;2.07;37.38;101801.88;4991133;28;20025;-70
2022/01/25 11:21:00;;;;;;;27.38;19.55;;;;;;;2.80;36.50;101790.31;5011107;28;20069;-71
2022/01/25 11:23:27;;;;;;;37.25;19.92;;;;;;;3.07;36.55;101773.63;4975672;28;20046;-71
2022/01/25 11:25:55;;;;;;;31.40;18.40;;;;;;;2.77;36.74;101764.25;4996605;28;20041;-71
2022/01/25 11:28:21;;;;;;;29.08;18.60;;;;;;;2.93;35.40;101780.69;4987428;28;20043;-72
2022/01/25 11:30:48;;;;;;;31.52;19.73;;;;;;;2.90;35.34;101766.66;4989293;28;20042;-73
2022/01/25 11:33:14;;;;;;;31.77;20.17;;;;;;;2.54;35.92;101780.31;4959254;28;20069;-71
2022/01/25 11:35:40;;;;;;;25.08;17.83;;;;;;;3.02;35.56;101769.91;4985571;28;20058;-72
2022/01/25 11:38:06;;;;;;;23.15;16.45;;;;;;;3.38;34.55;101770.03;4991580;28;20053;-70
2022/01/25 11:40:38;;;;;;;38.90;18.70;;;;;;;2.98;34.87;101748.94;4987695;28;20305;-71
2022/01/25 11:43:16;;;;;;;26.00;18.67;;;;;;;2.74;35.34;101765.84;4987314;28;20259;-71
2022/01/25 11:45:49;;;;;;;39.65;17.63;;;;;;;2.84;35.57;101754.28;4991362;28;20053;-72
2022/01/25 11:48:33;;;;;;;22.80;16.40;;;;;;;2.68;35.76;101759.44;4989124;28;20121;-72
2022/01/25 11:51:00;;;;;;;;;;;;;;;2.45;34.69;101755.63;4987579;28;20042;-69
2022/01/25 11:53:29;;;;;;;21.88;14.98;;;;;;;2.60;34.39;101753.88;4987924;28;19944;-72
2022/01/25 11:55:59;;;;;;;17.92;13.93;;;;;;;1.89;35.09;101741.28;4989938;28;20394;-71
2022/01/25 11:58:30;;;;;;;21.48;13.65;;;;;;;2.38;34.80;101730.19;4988263;28;20061;-73
2022/01/25 12:01:15;;;;;;;27.40;13.57;;;;;;;2.42;33.99;101742.50;4986280;28;20027;-72
2022/01/25 12:03:52;;;;;;;24.23;14.60;;;;;;;2.26;34.55;101740.75;4987326;28;20030;-72
2022/01/25 12:06:30;;;;;;;21.60;15.43;;;;;;;1.79;35.30;101739.88;4986404;28;20119;-71
2022/01/25 12:11:45;;;;;;;22.17;14.25;;;;;;;1.72;35.19;101732.59;4988757;28;20042;-71
2022/01/25 12:14:10;;;;;;;19.67;12.75;;;;;;;1.87;34.19;101730.88;4987314;28;20047;-71
2022/01/25 12:16:44;;;;;;;21.52;11.95;;;;;;;2.13;34.45;101727.94;4987727;28;20383;-72
2022/01/25 12:19:30;;;;;;;;;;;;;;;1.60;33.94;101729.31;4986830;28;20038;-71
2022/01/25 12:21:59;;;;;;;18.80;12.25;;;;;;;1.07;34.85;101714.13;4983021;28;20387;-71
2022/01/25 12:24:33;;;;;;;22.63;14.43;;;;;;;1.47;34.88;101726.00;4987562;28;20042;-72
2022/01/25 12:27:19;;;;;;;23.77;14.07;;;;;;;1.61;34.56;101721.59;4987612;28;20063;-71
2022/01/25 12:29:59;;;;;;;18.27;13.02;;;;;;;1.45;35.20;101698.25;4988501;28;20038;-71
2022/01/25 12:32:25;;;;;;;40.17;15.50;;;;;;;1.85;34.76;101716.97;4982606;28;20869;-72
2022/01/25 12:35:04;;;;;;;20.98;13.85;;;;;;;1.63;35.15;101704.47;4969907;28;20129;-71
2022/01/25 12:37:45;;;;;;;21.38;13.32;;;;;;;1.79;34.77;101702.78;5018212;28;20047;-70
2022/01/25 12:40:25;;;;;;;25.65;13.27;;;;;;;1.90;35.08;101709.44;4983468;28;20019;-71
2022/01/25 12:43:18;;;;;;;24.23;15.27;;;;;;;1.87;35.20;101699.81;4991788;28;20034;-71
2022/01/25 12:46:28;;;;;;;19.08;14.35;;;;;;;1.62;35.03;101700.13;4982511;28;20483;-71
2022/01/25 12:48:57;;;;;;;23.10;14.55;;;;;;;2.11;35.63;101702.88;4990929;28;20125;-70
2022/01/25 12:51:35;;;;;;;22.52;14.02;;;;;;;2.20;34.66;101679.19;4991180;28;20501;-72
2022/01/25 12:54:04;;;;;;;24.58;15.95;;;;;;;2.32;35.34;101697.97;4991247;28;20038;-73
2022/01/25 12:56:45;;;;;;;24.13;13.20;;;;;;;2.06;35.43;101699.13;4991770;28;20085;-71
2022/01/25 12:59:19;;;;;;;22.80;15.07;;;;;;;2.54;35.23;101694.81;4977241;28;20050;-72
2022/01/25 13:01:47;;;;;;;20.40;16.48;;;;;;;2.07;35.23;101677.59;4982312;28;20529;-72
2022/01/25 13:04:13;;;;;;;17.85;13.52;;;;;;;2.00;34.73;101682.38;4984077;28;20125;-71
2022/01/25 13:06:46;;;;;;;23.13;15.55;;;;;;;1.78;35.68;101690.63;4991775;28;20133;-70
2022/01/25 13:11:57;;;;;;;23.05;14.15;;;;;;;1.62;35.99;101674.25;4975064;28;20436;-73
2022/01/25 13:17:14;;;;;;;25.98;14.02;;;;;;;1.98;36.41;101694.34;4991488;28;20046;-71
2022/01/25 13:20:02;;;;;;;;;;;;;;;1.61;36.09;101706.09;4987738;28;20052;-70
2022/01/25 13:22:41;;;;;;;24.50;13.88;;;;;;;1.80;36.28;101668.31;4989138;28;20384;-70